createdAt,value
2022-08-25T00:00:55.789Z,19.67
2022-08-25T00:02:58.926Z,19.13
2022-08-25T00:05:05.275Z,18.55
2022-08-25T00:07:09.653Z,19.40
2022-08-25T00:09:16.335Z,18.00
2022-08-25T00:11:22.332Z,19.67
2022-08-25T00:13:25.526Z,19.83
2022-08-25T00:15:30.184Z,18.17
2022-08-25T00:17:33.271Z,17.67
2022-08-25T00:19:38.104Z,18.35
2022-08-25T00:21:45.342Z,18.23
2022-08-25T00:23:48.478Z,17.55
2022-08-25T00:25:51.485Z,19.75
2022-08-25T00:27:54.534Z,19.23
2022-08-25T00:29:57.499Z,18.30
2022-08-25T00:32:01.039Z,18.55
2022-08-25T00:34:05.048Z,18.98
2022-08-25T00:36:09.611Z,18.52
2022-08-25T00:38:15.285Z,19.15
2022-08-25T00:40:18.509Z,19.17
2022-08-25T00:42:21.548Z,17.75
2022-08-25T00:44:26.199Z,19.52
2022-08-25T00:46:33.574Z,18.80
2022-08-25T00:48:38.897Z,18.45
2022-08-25T00:50:41.893Z,18.85
2022-08-25T00:52:49.560Z,18.00
2022-08-25T00:55:05.784Z,18.00
2022-08-25T00:57:14.249Z,17.67
2022-08-25T00:59:20.208Z,17.35
2022-08-25T01:01:23.641Z,17.10
2022-08-25T01:03:32.854Z,17.55
2022-08-25T01:07:41.104Z,17.20
2022-08-25T01:09:48.334Z,18.38
2022-08-25T01:11:54.170Z,18.00
2022-08-25T01:13:58.376Z,17.17
2022-08-25T01:16:02.099Z,17.70
2022-08-25T01:18:05.339Z,18.05
2022-08-25T01:20:09.815Z,17.35
2022-08-25T01:22:15.647Z,17.20
2022-08-25T01:24:23.686Z,17.98
2022-08-25T01:26:30.600Z,17.90
2022-08-25T01:28:35.129Z,18.15
2022-08-25T01:30:39.028Z,20.80
2022-08-25T01:32:42.298Z,19.98
2022-08-25T01:34:46.261Z,19.30
2022-08-25T01:36:49.881Z,19.45
2022-08-25T01:38:55.649Z,19.00
2022-08-25T01:40:58.746Z,19.45
2022-08-25T01:43:11.713Z,20.52
2022-08-25T01:45:15.705Z,19.45
2022-08-25T01:47:19.328Z,20.13
2022-08-25T01:49:22.647Z,21.15
2022-08-25T01:51:28.148Z,20.58
2022-08-25T01:53:32.356Z,19.70
2022-08-25T01:55:39.454Z,19.10
2022-08-25T01:57:42.613Z,19.77
2022-08-25T01:59:46.259Z,18.42
2022-08-25T02:01:49.469Z,17.48
2022-08-25T02:03:54.344Z,17.50
2022-08-25T02:05:58.569Z,17.38
2022-08-25T02:08:01.648Z,17.48
2022-08-25T02:10:06.559Z,18.92
2022-08-25T02:12:12.254Z,17.67
2022-08-25T02:14:16.851Z,19.25
2022-08-25T02:16:24.134Z,19.08
2022-08-25T02:18:27.353Z,17.15
2022-08-25T02:20:30.481Z,18.60
2022-08-25T02:22:33.535Z,17.08
2022-08-25T02:24:36.568Z,17.55
2022-08-25T02:26:39.800Z,17.52
2022-08-25T02:28:46.107Z,17.90
2022-08-25T02:30:49.156Z,17.98
2022-08-25T02:32:52.290Z,20.27
2022-08-25T02:34:55.321Z,23.00
2022-08-25T02:36:58.308Z,24.13
2022-08-25T02:39:01.951Z,25.92
2022-08-25T02:41:11.102Z,27.17
2022-08-25T02:43:17.195Z,26.77
2022-08-25T02:45:22.847Z,25.60
2022-08-25T02:47:27.023Z,25.80
2022-08-25T02:49:30.445Z,27.13
2022-08-25T02:51:34.135Z,26.08
2022-08-25T02:53:38.557Z,26.15
2022-08-25T02:55:41.554Z,25.10
2022-08-25T02:57:44.669Z,25.13
2022-08-25T02:59:47.782Z,27.20
2022-08-25T03:01:53.890Z,25.70
2022-08-25T03:03:57.749Z,25.02
2022-08-25T03:06:01.009Z,26.45
2022-08-25T03:08:04.752Z,24.73
2022-08-25T03:10:11.509Z,24.08
2022-08-25T03:12:14.644Z,24.20
2022-08-25T03:14:17.744Z,25.45
2022-08-25T03:16:21.917Z,24.98
2022-08-25T03:18:27.782Z,24.63
2022-08-25T03:20:31.714Z,24.48
2022-08-25T03:22:34.823Z,24.88
2022-08-25T03:24:37.910Z,24.45
2022-08-25T03:26:40.824Z,24.42
2022-08-25T03:28:43.898Z,24.65
2022-08-25T03:30:46.950Z,24.08
2022-08-25T03:32:56.633Z,24.88
2022-08-25T03:35:02.566Z,23.75
2022-08-25T03:37:05.638Z,25.48
2022-08-25T03:39:09.197Z,24.35
2022-08-25T03:41:15.355Z,25.55
2022-08-25T03:43:18.709Z,24.75
2022-08-25T03:45:21.913Z,26.63
2022-08-25T03:47:25.192Z,26.55
2022-08-25T03:49:28.285Z,27.85
2022-08-25T03:51:40.189Z,27.55
2022-08-25T03:53:43.338Z,26.88
2022-08-25T03:55:46.780Z,25.75
2022-08-25T03:57:50.376Z,25.30
2022-08-25T03:59:53.385Z,25.67
2022-08-25T04:01:56.432Z,26.25
2022-08-25T04:03:59.621Z,26.02
2022-08-25T04:06:03.991Z,25.20
2022-08-25T04:08:09.682Z,25.45
2022-08-25T04:10:12.771Z,24.80
2022-08-25T04:12:15.864Z,24.38
2022-08-25T04:14:22.402Z,26.80
2022-08-25T04:16:28.763Z,26.85
2022-08-25T04:18:31.851Z,25.83
2022-08-25T04:20:34.839Z,27.20
2022-08-25T04:22:38.311Z,27.50
2022-08-25T04:24:43.882Z,25.65
2022-08-25T04:26:49.026Z,25.25
2022-08-25T04:28:52.069Z,25.58
2022-08-25T04:30:55.096Z,24.88
2022-08-25T04:32:58.101Z,24.45
2022-08-25T04:35:01.132Z,24.48
2022-08-25T04:37:05.131Z,23.50
2022-08-25T04:39:08.499Z,24.45
2022-08-25T04:41:16.819Z,25.73
2022-08-25T04:43:19.901Z,25.20
2022-08-25T04:45:22.999Z,25.58
2022-08-25T04:47:26.066Z,25.38
2022-08-25T04:49:31.255Z,25.48
2022-08-25T04:51:37.487Z,26.20
2022-08-25T04:53:41.096Z,27.23
2022-08-25T04:55:45.479Z,26.50
2022-08-25T04:57:52.984Z,28.17
2022-08-25T04:59:56.154Z,27.40
2022-08-25T05:02:00.254Z,26.48
2022-08-25T05:04:06.137Z,26.83
2022-08-25T05:06:12.804Z,26.88
2022-08-25T05:08:18.353Z,28.80
2022-08-25T05:10:21.375Z,27.13
2022-08-25T05:12:25.290Z,25.08
2022-08-25T05:14:34.762Z,28.10
2022-08-25T05:16:38.845Z,26.25
2022-08-25T05:18:42.492Z,26.45
2022-08-25T05:20:45.908Z,26.45
2022-08-25T05:22:50.673Z,26.00
2022-08-25T05:24:53.671Z,26.02
2022-08-25T05:26:57.241Z,27.95
2022-08-25T05:29:01.939Z,26.80
2022-08-25T05:31:08.953Z,25.42
2022-08-25T05:33:12.814Z,28.02
2022-08-25T05:35:15.850Z,29.17
2022-08-25T05:37:18.872Z,26.63
2022-08-25T05:39:22.005Z,26.90
2022-08-25T05:41:27.779Z,27.23
2022-08-25T05:43:30.994Z,27.42
2022-08-25T05:45:34.169Z,27.70
2022-08-25T05:47:39.919Z,27.63
2022-08-25T05:49:43.735Z,25.35
2022-08-25T05:51:46.879Z,25.23
2022-08-25T05:53:50.813Z,24.75
2022-08-25T05:55:55.229Z,26.42
2022-08-25T05:57:58.236Z,25.17
2022-08-25T06:00:01.396Z,22.58
2022-08-25T06:02:04.954Z,22.88
2022-08-25T06:04:10.788Z,22.17
2022-08-25T06:06:13.870Z,21.08
2022-08-25T06:08:16.970Z,18.83
2022-08-25T06:10:20.384Z,19.25
2022-08-25T06:12:23.408Z,19.75
2022-08-25T06:14:26.544Z,17.02
2022-08-25T06:16:29.718Z,17.95
2022-08-25T06:18:32.728Z,18.90
2022-08-25T06:20:38.349Z,17.08
2022-08-25T06:22:41.644Z,18.73
2022-08-25T06:24:44.634Z,20.60
2022-08-25T06:26:47.641Z,19.75
2022-08-25T06:28:51.348Z,20.35
2022-08-25T06:30:58.771Z,18.77
2022-08-25T06:33:02.377Z,19.42
2022-08-25T06:35:07.301Z,21.27
2022-08-25T06:37:12.857Z,19.98
2022-08-25T06:39:16.103Z,21.50
2022-08-25T06:41:19.132Z,21.75
2022-08-25T06:43:22.745Z,23.13
2022-08-25T06:45:25.833Z,21.90
2022-08-25T06:47:28.923Z,22.85
2022-08-25T06:49:35.541Z,23.25
2022-08-25T06:51:39.679Z,23.98
2022-08-25T06:53:46.633Z,23.17
2022-08-25T06:55:56.849Z,22.77
2022-08-25T06:57:59.896Z,22.08
2022-08-25T07:00:05.106Z,22.48
2022-08-25T07:02:09.358Z,21.60
2022-08-25T07:04:13.187Z,20.35
2022-08-25T07:06:18.254Z,20.15
2022-08-25T07:08:21.572Z,19.40
2022-08-25T07:10:27.147Z,19.88
2022-08-25T07:12:33.706Z,19.37
2022-08-25T07:14:36.826Z,18.20
2022-08-25T07:16:43.142Z,17.73
2022-08-25T07:18:51.762Z,17.48
2022-08-25T07:20:54.869Z,19.55
2022-08-25T07:22:58.162Z,18.27
2022-08-25T07:25:01.154Z,17.42
2022-08-25T07:27:07.224Z,15.15
2022-08-25T07:29:13.171Z,17.60
2022-08-25T07:31:16.289Z,17.30
2022-08-25T07:33:19.309Z,17.17
2022-08-25T07:35:24.151Z,17.50
2022-08-25T07:37:47.834Z,16.85
2022-08-25T07:39:51.730Z,16.35
2022-08-25T07:41:54.777Z,18.38
2022-08-25T07:44:00.657Z,18.33
2022-08-25T07:46:06.906Z,19.15
2022-08-25T07:48:11.864Z,20.05
2022-08-25T07:50:16.402Z,18.70
2022-08-25T07:52:19.375Z,20.17
2022-08-25T07:54:22.608Z,22.63
2022-08-25T07:56:37.691Z,21.70
2022-08-25T07:58:41.665Z,22.27
2022-08-25T08:00:48.377Z,21.15
2022-08-25T08:02:53.895Z,21.25
2022-08-25T08:04:57.044Z,19.95
2022-08-25T08:07:00.013Z,20.42
2022-08-25T08:09:03.814Z,18.65
2022-08-25T08:11:06.864Z,20.17
2022-08-25T08:13:17.759Z,18.58
2022-08-25T08:15:21.770Z,18.10
2022-08-25T08:17:27.876Z,15.60
2022-08-25T08:19:30.933Z,17.23
2022-08-25T08:21:36.272Z,15.88
2022-08-25T08:23:39.741Z,14.50
2022-08-25T08:25:42.791Z,14.90
2022-08-25T08:27:45.935Z,11.38
2022-08-25T08:29:48.944Z,9.35
2022-08-25T08:31:51.968Z,9.88
2022-08-25T08:33:58.223Z,8.93
2022-08-25T08:36:05.131Z,9.15
2022-08-25T08:38:14.870Z,9.00
2022-08-25T08:40:21.113Z,9.63
2022-08-25T08:42:40.562Z,8.55
2022-08-25T08:45:16.023Z,8.90
2022-08-25T08:47:27.818Z,7.55
2022-08-25T08:49:39.619Z,8.02
2022-08-25T08:51:51.525Z,8.70
2022-08-25T08:53:59.138Z,9.20
2022-08-25T08:56:08.969Z,6.97
2022-08-25T08:58:20.853Z,7.05
2022-08-25T09:00:31.161Z,7.57
2022-08-25T09:02:39.581Z,8.13
2022-08-25T09:05:02.739Z,7.22
2022-08-25T09:07:13.234Z,6.60
2022-08-25T09:11:31.757Z,7.28
2022-08-25T09:13:44.857Z,6.82
2022-08-25T09:15:54.922Z,6.88
2022-08-25T09:18:12.008Z,6.65
2022-08-25T09:20:33.420Z,6.68
2022-08-25T09:22:50.265Z,6.72
2022-08-25T09:25:08.666Z,6.63
2022-08-25T09:27:21.237Z,6.97
2022-08-25T09:29:29.483Z,7.72
2022-08-25T09:31:35.138Z,8.32
2022-08-25T09:33:38.223Z,6.32
2022-08-25T09:35:44.716Z,8.00
2022-08-25T09:37:58.784Z,7.68
2022-08-25T09:40:02.007Z,7.75
2022-08-25T09:42:05.566Z,7.78
2022-08-25T09:44:17.989Z,8.32
2022-08-25T09:46:27.100Z,8.27
2022-08-25T09:48:37.721Z,8.88
2022-08-25T09:50:46.812Z,8.55
2022-08-25T09:52:53.518Z,9.55
2022-08-25T09:54:59.070Z,9.43
2022-08-25T09:57:02.133Z,9.05
2022-08-25T09:59:20.984Z,9.25
2022-08-25T10:01:48.773Z,9.93
2022-08-25T10:04:00.382Z,9.93
2022-08-25T10:06:13.030Z,8.95
2022-08-25T10:08:27.021Z,10.15
2022-08-25T10:10:32.704Z,9.20
2022-08-25T10:12:42.983Z,10.30
2022-08-25T10:14:46.136Z,10.13
2022-08-25T10:16:51.399Z,10.18
2022-08-25T10:19:03.458Z,10.35
2022-08-25T10:21:16.511Z,10.13
2022-08-25T10:23:27.984Z,9.85
2022-08-25T10:25:33.820Z,9.48
2022-08-25T10:27:46.315Z,11.68
2022-08-25T10:30:03.612Z,10.80
2022-08-25T10:32:15.766Z,9.65
2022-08-25T10:34:32.801Z,10.30
2022-08-25T10:36:50.817Z,9.27
2022-08-25T10:38:57.600Z,10.10
2022-08-25T10:41:18.919Z,9.18
2022-08-25T10:43:30.744Z,9.35
2022-08-25T10:45:38.545Z,9.60
2022-08-25T10:48:11.272Z,9.43
2022-08-25T10:50:32.955Z,9.63
2022-08-25T10:53:02.276Z,8.65
2022-08-25T10:55:17.312Z,10.25
2022-08-25T10:57:27.946Z,9.20
2022-08-25T10:59:51.355Z,9.40
2022-08-25T11:02:13.051Z,9.23
2022-08-25T11:04:22.053Z,10.45
2022-08-25T11:06:39.135Z,8.85
2022-08-25T11:08:48.509Z,8.93
2022-08-25T11:10:56.697Z,8.77
2022-08-25T11:13:03.865Z,8.13
2022-08-25T11:15:11.906Z,9.10
2022-08-25T11:17:20.120Z,8.70
2022-08-25T11:19:29.083Z,8.50
2022-08-25T11:21:44.158Z,8.70
2022-08-25T11:23:55.417Z,8.55
2022-08-25T11:26:02.987Z,8.65
2022-08-25T11:28:11.374Z,8.40
2022-08-25T11:30:18.830Z,8.77
2022-08-25T11:32:23.058Z,7.50
2022-08-25T11:34:28.768Z,9.27
2022-08-25T11:38:55.398Z,9.05
2022-08-25T11:41:11.028Z,7.95
2022-08-25T11:43:38.129Z,9.50
2022-08-25T11:46:07.654Z,8.93
2022-08-25T11:48:21.903Z,8.65
2022-08-25T11:50:30.044Z,8.65
2022-08-25T11:52:46.685Z,8.60
2022-08-25T11:54:52.668Z,8.43
2022-08-25T11:57:01.012Z,7.82
2022-08-25T11:59:05.018Z,8.10
2022-08-25T12:01:12.063Z,8.90
2022-08-25T12:03:47.032Z,8.52
2022-08-25T12:05:53.098Z,8.68
2022-08-25T12:08:04.270Z,9.13
2022-08-25T12:10:22.581Z,7.72
2022-08-25T12:12:30.503Z,8.70
2022-08-25T12:14:47.740Z,8.43
2022-08-25T12:17:17.038Z,7.90
2022-08-25T12:21:32.756Z,7.35
2022-08-25T12:23:38.371Z,8.10
2022-08-25T12:25:55.025Z,8.50
2022-08-25T12:28:06.869Z,8.32
2022-08-25T12:30:21.076Z,8.07
2022-08-25T12:32:44.858Z,7.65
2022-08-25T12:35:09.814Z,8.75
2022-08-25T12:37:15.431Z,8.25
2022-08-25T12:39:24.358Z,8.98
2022-08-25T12:41:30.881Z,9.45
2022-08-25T12:43:38.025Z,8.85
2022-08-25T12:45:44.510Z,8.93
2022-08-25T12:47:49.794Z,9.23
2022-08-25T12:49:53.092Z,8.77
2022-08-25T12:52:04.850Z,8.68
2022-08-25T12:54:18.927Z,9.30
2022-08-25T12:56:39.191Z,8.65
2022-08-25T12:59:00.439Z,9.15
2022-08-25T13:01:32.805Z,8.65
2022-08-25T13:04:10.374Z,9.23
2022-08-25T13:06:29.601Z,7.90
2022-08-25T13:09:08.482Z,8.73
2022-08-25T13:11:17.004Z,9.27
2022-08-25T13:13:49.369Z,9.68
2022-08-25T13:15:59.968Z,8.68
2022-08-25T13:18:21.010Z,9.05
2022-08-25T13:20:27.277Z,9.98
2022-08-25T13:22:30.702Z,10.25
2022-08-25T13:24:40.297Z,9.57
2022-08-25T13:28:58.745Z,9.50
2022-08-25T13:31:05.965Z,9.93
2022-08-25T13:33:18.127Z,9.48
2022-08-25T13:35:32.335Z,10.02
2022-08-25T13:37:35.900Z,9.60
2022-08-25T13:39:55.845Z,9.85
2022-08-25T13:42:00.559Z,8.90
2022-08-25T13:44:13.105Z,9.65
2022-08-25T13:46:20.147Z,9.13
2022-08-25T13:48:34.253Z,9.52
2022-08-25T13:50:39.287Z,9.07
2022-08-25T13:52:45.745Z,10.00
2022-08-25T13:54:49.990Z,8.52
2022-08-25T13:56:53.016Z,8.85
2022-08-25T13:58:58.209Z,8.23
2022-08-25T14:01:32.287Z,8.70
2022-08-25T14:03:35.266Z,8.85
2022-08-25T14:05:40.853Z,8.75
2022-08-25T14:08:09.162Z,8.65
2022-08-25T14:10:33.268Z,9.55
2022-08-25T14:12:40.020Z,9.30
2022-08-25T14:14:43.069Z,8.95
2022-08-25T14:16:52.181Z,9.45
2022-08-25T14:18:59.389Z,9.30
2022-08-25T14:21:09.072Z,10.18
2022-08-25T14:23:19.059Z,9.88
2022-08-25T14:25:22.249Z,10.57
2022-08-25T14:27:25.288Z,10.40
2022-08-25T14:29:28.901Z,11.23
2022-08-25T14:31:35.695Z,10.30
2022-08-25T14:33:44.543Z,11.30
2022-08-25T14:35:55.020Z,12.23
2022-08-25T14:37:58.224Z,10.88
2022-08-25T14:40:01.255Z,10.57
2022-08-25T14:42:05.041Z,11.13
2022-08-25T14:44:10.036Z,11.52
2022-08-25T14:46:19.657Z,12.10
2022-08-25T14:48:26.969Z,11.40
2022-08-25T14:50:33.415Z,12.75
2022-08-25T14:52:36.602Z,11.25
2022-08-25T14:54:39.613Z,11.35
2022-08-25T14:56:44.023Z,12.10
2022-08-25T14:58:50.788Z,12.60
2022-08-25T15:00:57.329Z,11.80
2022-08-25T15:03:00.525Z,13.68
2022-08-25T15:05:04.595Z,12.63
2022-08-25T15:07:12.763Z,13.95
2022-08-25T15:09:16.704Z,12.20
2022-08-25T15:11:19.751Z,12.00
2022-08-25T15:13:24.323Z,12.32
2022-08-25T15:15:27.407Z,12.45
2022-08-25T15:17:30.884Z,11.57
2022-08-25T15:19:34.958Z,11.82
2022-08-25T15:21:38.190Z,11.75
2022-08-25T15:23:44.565Z,11.27
2022-08-25T15:25:52.734Z,12.20
2022-08-25T15:27:56.366Z,11.48
2022-08-25T15:29:59.466Z,11.82
2022-08-25T15:32:05.281Z,11.60
2022-08-25T15:34:11.747Z,11.48
2022-08-25T15:36:18.287Z,11.50
2022-08-25T15:38:23.891Z,12.30
2022-08-25T15:40:29.583Z,12.95
2022-08-25T15:42:32.906Z,12.63
2022-08-25T15:44:36.007Z,13.35
2022-08-25T15:46:40.261Z,13.18
2022-08-25T15:48:43.298Z,11.52
2022-08-25T15:50:46.368Z,12.20
2022-08-25T15:52:49.937Z,12.07
2022-08-25T15:54:53.052Z,13.63
2022-08-25T15:56:59.839Z,12.25
2022-08-25T15:59:04.921Z,13.10
2022-08-25T16:01:13.241Z,12.25
2022-08-25T16:03:15.872Z,12.00
2022-08-25T16:05:25.683Z,12.75
2022-08-25T16:07:29.321Z,12.40
2022-08-25T16:09:32.352Z,13.30
2022-08-25T16:11:35.631Z,13.23
2022-08-25T16:13:44.280Z,13.25
2022-08-25T16:15:53.165Z,13.63
2022-08-25T16:17:59.954Z,13.10
2022-08-25T16:20:03.556Z,13.95
2022-08-25T16:22:10.913Z,13.60
2022-08-25T16:24:14.246Z,13.07
2022-08-25T16:26:17.510Z,13.32
2022-08-25T16:28:20.638Z,13.95
2022-08-25T16:30:30.318Z,14.25
2022-08-25T16:32:33.420Z,13.02
2022-08-25T16:34:36.821Z,13.55
2022-08-25T16:36:44.410Z,14.23
2022-08-25T16:38:49.247Z,15.20
2022-08-25T16:40:53.245Z,13.70
2022-08-25T16:42:56.953Z,13.57
2022-08-25T16:45:00.042Z,15.10
2022-08-25T16:47:05.903Z,15.55
2022-08-25T16:49:13.331Z,14.23
2022-08-25T16:51:19.403Z,15.52
2022-08-25T16:53:26.479Z,15.20
2022-08-25T16:55:38.983Z,15.13
2022-08-25T16:57:44.603Z,14.98
2022-08-25T16:59:47.624Z,14.93
2022-08-25T17:01:51.446Z,15.00
2022-08-25T17:03:58.332Z,14.80
2022-08-25T17:06:01.969Z,15.43
2022-08-25T17:08:05.371Z,15.38
2022-08-25T17:10:12.773Z,15.25
2022-08-25T17:12:16.126Z,15.00
2022-08-25T17:14:20.070Z,14.65
2022-08-25T17:16:25.526Z,15.30
2022-08-25T17:18:29.551Z,14.38
2022-08-25T17:20:35.435Z,14.98
2022-08-25T17:22:39.429Z,14.52
2022-08-25T17:24:42.426Z,14.57
2022-08-25T17:26:46.871Z,14.38
2022-08-25T17:28:49.894Z,14.82
2022-08-25T17:30:52.954Z,14.43
2022-08-25T17:32:57.054Z,14.75
2022-08-25T17:35:00.033Z,13.23
2022-08-25T17:37:05.636Z,14.30
2022-08-25T17:39:10.602Z,14.48
2022-08-25T17:41:13.962Z,13.90
2022-08-25T17:43:17.117Z,13.48
2022-08-25T17:45:21.655Z,14.63
2022-08-25T17:47:24.795Z,12.75
2022-08-25T17:49:27.988Z,12.38
2022-08-25T17:51:36.826Z,12.65
2022-08-25T17:53:42.689Z,11.23
2022-08-25T17:55:46.055Z,12.77
2022-08-25T17:57:49.180Z,13.68
2022-08-25T17:59:52.369Z,12.13
2022-08-25T18:01:55.776Z,12.80
2022-08-25T18:03:59.600Z,13.27
2022-08-25T18:06:03.551Z,12.60
2022-08-25T18:08:10.709Z,13.13
2022-08-25T18:10:17.088Z,13.05
2022-08-25T18:12:20.322Z,12.70
2022-08-25T18:14:25.607Z,12.90
2022-08-25T18:16:29.084Z,13.25
2022-08-25T18:18:32.487Z,13.60
2022-08-25T18:20:35.634Z,13.50
2022-08-25T18:22:38.909Z,12.85
2022-08-25T18:24:42.088Z,13.20
2022-08-25T18:26:48.952Z,12.90
2022-08-25T18:28:52.141Z,12.85
2022-08-25T18:30:55.269Z,13.30
2022-08-25T18:32:59.315Z,13.27
2022-08-25T18:35:03.535Z,12.38
2022-08-25T18:37:07.725Z,13.50
2022-08-25T18:39:13.497Z,13.48
2022-08-25T18:41:16.822Z,14.70
2022-08-25T18:43:22.398Z,13.63
2022-08-25T18:45:27.727Z,14.18
2022-08-25T18:47:30.337Z,14.45
2022-08-25T18:49:32.998Z,15.60
2022-08-25T18:51:35.812Z,14.82
2022-08-25T18:53:50.137Z,13.70
2022-08-25T18:55:53.633Z,14.05
2022-08-25T18:57:57.376Z,14.15
2022-08-25T19:00:05.567Z,15.07
2022-08-25T19:02:09.158Z,15.27
2022-08-25T19:04:12.152Z,14.75
2022-08-25T19:06:15.494Z,15.50
2022-08-25T19:08:19.432Z,16.48
2022-08-25T19:10:24.910Z,15.05
2022-08-25T19:12:27.924Z,16.55
2022-08-25T19:14:32.190Z,16.33
2022-08-25T19:16:40.262Z,17.17
2022-08-25T19:18:43.884Z,15.10
2022-08-25T19:20:46.970Z,15.77
2022-08-25T19:22:50.573Z,16.85
2022-08-25T19:24:53.907Z,17.08
2022-08-25T19:26:57.400Z,16.45
2022-08-25T19:29:01.073Z,16.38
2022-08-25T19:31:04.550Z,16.20
2022-08-25T19:33:11.694Z,16.05
2022-08-25T19:35:22.192Z,15.68
2022-08-25T19:37:27.741Z,15.90
2022-08-25T19:39:31.294Z,17.08
2022-08-25T19:41:36.237Z,18.02
2022-08-25T19:43:39.559Z,15.98
2022-08-25T19:45:53.451Z,16.88
2022-08-25T19:47:56.456Z,16.40
2022-08-25T19:50:04.123Z,16.48
2022-08-25T19:52:10.404Z,16.48
2022-08-25T19:54:15.870Z,17.52
2022-08-25T19:56:18.883Z,19.65
2022-08-25T19:58:21.937Z,17.52
2022-08-25T20:00:29.713Z,18.60
2022-08-25T20:02:32.871Z,19.05
2022-08-25T20:04:36.157Z,17.20
2022-08-25T20:06:41.794Z,16.52
2022-08-25T20:08:44.770Z,16.98
2022-08-25T20:10:47.985Z,16.77
2022-08-25T20:12:51.018Z,17.58
2022-08-25T20:14:55.804Z,17.52
2022-08-25T20:16:58.880Z,18.52
2022-08-25T20:19:02.703Z,17.30
2022-08-25T20:21:06.295Z,16.98
2022-08-25T20:23:11.943Z,17.45
2022-08-25T20:25:18.813Z,17.65
2022-08-25T20:27:24.578Z,17.08
2022-08-25T20:29:27.721Z,18.52
2022-08-25T20:31:30.917Z,18.10
2022-08-25T20:33:34.166Z,18.58
2022-08-25T20:35:37.204Z,18.85
2022-08-25T20:37:42.634Z,17.00
2022-08-25T20:39:48.311Z,18.15
2022-08-25T20:41:51.500Z,18.35
2022-08-25T20:43:54.468Z,18.90
2022-08-25T20:46:02.566Z,18.52
2022-08-25T20:48:06.906Z,18.00
2022-08-25T20:50:11.095Z,18.67
2022-08-25T20:52:15.407Z,18.42
2022-08-25T20:54:18.901Z,18.35
2022-08-25T20:56:25.860Z,18.35
2022-08-25T20:58:29.137Z,20.38
2022-08-25T21:00:32.165Z,19.08
2022-08-25T21:02:39.280Z,20.33
2022-08-25T21:04:50.250Z,20.58
2022-08-25T21:06:53.634Z,18.67
2022-08-25T21:08:56.693Z,20.02
2022-08-25T21:11:02.415Z,19.23
2022-08-25T21:13:10.139Z,18.52
2022-08-25T21:15:13.756Z,19.35
2022-08-25T21:17:21.233Z,19.80
2022-08-25T21:19:30.032Z,19.27
2022-08-25T21:21:38.248Z,19.52
2022-08-25T21:23:44.936Z,20.50
2022-08-25T21:25:48.390Z,19.83
2022-08-25T21:27:52.504Z,20.85
2022-08-25T21:29:58.373Z,19.67
2022-08-25T21:32:01.525Z,21.60
2022-08-25T21:34:04.657Z,20.88
2022-08-25T21:36:11.222Z,22.38
2022-08-25T21:38:14.246Z,20.92
2022-08-25T21:40:18.345Z,20.40
2022-08-25T21:42:22.889Z,19.67
2022-08-25T21:44:26.306Z,21.35
2022-08-25T21:46:33.636Z,20.83
2022-08-25T21:48:39.345Z,20.17
2022-08-25T21:50:42.508Z,19.60
2022-08-25T21:52:45.554Z,19.75
2022-08-25T21:54:49.074Z,20.05
2022-08-25T21:56:54.082Z,20.40
2022-08-25T21:58:57.168Z,20.00
2022-08-25T22:01:05.446Z,20.98
2022-08-25T22:03:16.662Z,20.05
2022-08-25T22:05:20.055Z,21.42
2022-08-25T22:07:24.775Z,20.30
2022-08-25T22:09:28.651Z,21.58
2022-08-25T22:11:32.061Z,20.80
2022-08-25T22:13:41.211Z,21.13
2022-08-25T22:15:46.465Z,21.52
2022-08-25T22:17:55.529Z,23.33
2022-08-25T22:20:01.405Z,21.27
2022-08-25T22:22:05.207Z,21.27
2022-08-25T22:24:09.044Z,21.25
2022-08-25T22:26:13.016Z,22.60
2022-08-25T22:28:16.684Z,21.98
2022-08-25T22:30:19.827Z,23.70
2022-08-25T22:32:22.907Z,21.85
2022-08-25T22:34:31.635Z,21.75
2022-08-25T22:36:38.960Z,21.83
2022-08-25T22:38:43.173Z,22.45
2022-08-25T22:40:46.152Z,21.55
2022-08-25T22:42:49.504Z,20.20
2022-08-25T22:44:52.994Z,22.65
2022-08-25T22:46:56.095Z,22.80
2022-08-25T22:48:59.388Z,23.63
2022-08-25T22:51:08.547Z,23.02
2022-08-25T22:53:14.408Z,21.65
2022-08-25T22:55:17.754Z,22.70
2022-08-25T22:57:25.395Z,22.95
2022-08-25T22:59:28.517Z,21.17
2022-08-25T23:01:32.692Z,22.13
2022-08-25T23:03:35.722Z,23.10
2022-08-25T23:05:40.132Z,22.42
2022-08-25T23:07:43.326Z,23.08
2022-08-25T23:09:49.676Z,22.13
2022-08-25T23:11:52.835Z,21.63
2022-08-25T23:13:58.823Z,22.27
2022-08-25T23:16:03.613Z,23.15
2022-08-25T23:18:09.134Z,22.92
2022-08-25T23:20:12.141Z,21.73
2022-08-25T23:22:16.255Z,21.25
2022-08-25T23:24:29.903Z,23.17
2022-08-25T23:26:36.296Z,22.98
2022-08-25T23:28:39.268Z,22.80
2022-08-25T23:30:42.800Z,21.80
2022-08-25T23:32:47.849Z,22.15
2022-08-25T23:34:51.154Z,22.80
2022-08-25T23:36:54.371Z,22.05
2022-08-25T23:38:59.246Z,23.35
2022-08-25T23:41:05.561Z,21.77
2022-08-25T23:43:12.091Z,21.02
2022-08-25T23:45:15.864Z,20.63
2022-08-25T23:47:18.922Z,21.45
2022-08-25T23:49:24.131Z,20.65
2022-08-25T23:51:30.094Z,20.60
2022-08-25T23:53:33.837Z,21.50
2022-08-25T23:55:36.970Z,20.85
2022-08-25T23:57:54.544Z,20.58
